TimeMDT,TemperatureF,Dew PointF,Humidity,Sea Level PressureIn,VisibilityMPH,Wind Direction,Wind SpeedMPH,Gust SpeedMPH,PrecipitationIn,Events,Conditions,WindDirDegrees,DateUTC
12:15 AM,16.7,14.5,91,30.19,10.0,Calm,Calm,-,N/A,,Clear,0,2013-04-24 06:15:00
12:35 AM,15.4,13.5,92,30.19,10.0,Calm,Calm,-,N/A,,Clear,0,2013-04-24 06:35:00
12:55 AM,16.5,14.0,90,30.20,10.0,Calm,Calm,-,N/A,,Clear,0,2013-04-24 06:55:00
1:15 AM,15.4,13.3,91,30.21,10.0,Calm,Calm,-,N/A,,Clear,0,2013-04-24 07:15:00
1:35 AM,13.6,11.3,90,30.20,10.0,Calm,Calm,-,N/A,,Clear,0,2013-04-24 07:35:00
1:55 AM,12.6,10.6,92,30.19,10.0,Calm,Calm,-,N/A,,Scattered Clouds,0,2013-04-24 07:55:00
2:15 AM,13.1,11.1,92,30.18,10.0,Calm,Calm,-,N/A,,Clear,0,2013-04-24 08:15:00
2:35 AM,12.7,10.2,90,30.18,10.0,Calm,Calm,-,N/A,,Clear,0,2013-04-24 08:35:00
2:55 AM,12.0,9.1,88,30.16,10.0,Calm,Calm,-,N/A,,Clear,0,2013-04-24 08:55:00
3:15 AM,10.8,8.6,91,30.16,10.0,Calm,Calm,-,N/A,,Scattered Clouds,0,2013-04-24 09:15:00
3:35 AM,14.7,13.6,95,30.16,1.2,Calm,Calm,-,N/A,,Overcast,0,2013-04-24 09:35:00
4:15 AM,17.2,16.2,96,30.17,0.5,Calm,Calm,-,N/A,Fog,Light Freezing Fog,0,2013-04-24 10:15:00
4:35 AM,16.3,14.9,94,30.17,0.2,Calm,Calm,-,N/A,Fog,Light Freezing Fog,0,2013-04-24 10:35:00
4:55 AM,15.3,14.0,95,30.17,0.2,Calm,Calm,-,N/A,Fog,Light Freezing Fog,0,2013-04-24 10:55:00
5:15 AM,14.4,12.9,94,30.17,0.2,Calm,Calm,-,N/A,Fog,Light Freezing Fog,0,2013-04-24 11:15:00
5:35 AM,13.1,11.5,93,30.17,0.2,Calm,Calm,-,N/A,Fog,Light Freezing Fog,0,2013-04-24 11:35:00
5:55 AM,12.9,11.3,93,30.16,0.5,Calm,Calm,-,N/A,Fog,Light Freezing Fog,0,2013-04-24 11:55:00
6:15 AM,12.7,11.1,93,30.16,0.5,Calm,Calm,-,N/A,Fog,Light Freezing Fog,0,2013-04-24 12:15:00
6:35 AM,11.7,9.7,92,30.18,0.2,Calm,Calm,-,N/A,Fog,Light Freezing Fog,0,2013-04-24 12:35:00
6:55 AM,11.3,9.5,92,30.18,0.2,Calm,Calm,-,N/A,Fog,Light Freezing Fog,0,2013-04-24 12:55:00
7:15 AM,11.3,9.3,92,30.19,0.2,Calm,Calm,-,N/A,Fog,Light Freezing Fog,0,2013-04-24 13:15:00
7:35 AM,12.0,10.0,92,30.20,1.0,Calm,Calm,-,N/A,,Overcast,0,2013-04-24 13:35:00
7:55 AM,13.5,11.8,93,30.19,2.0,Calm,Calm,-,N/A,,Overcast,0,2013-04-24 13:55:00
8:15 AM,16.5,15.3,95,30.19,10.0,Calm,Calm,-,N/A,,Scattered Clouds,0,2013-04-24 14:15:00
8:35 AM,19.4,18.3,96,30.20,10.0,Calm,Calm,-,N/A,,Clear,0,2013-04-24 14:35:00
8:55 AM,20.8,19.8,96,30.20,10.0,Calm,Calm,-,N/A,,Clear,0,2013-04-24 14:55:00
9:15 AM,25.7,24.8,96,30.20,10.0,Calm,Calm,-,N/A,,Clear,0,2013-04-24 15:15:00
9:35 AM,35.1,13.6,41,30.18,10.0,WSW,12.7,19.6,N/A,,Clear,250,2013-04-24 15:35:00
9:55 AM,39.6,6.4,25,30.18,10.0,WSW,15.0,20.7,N/A,,Clear,250,2013-04-24 15:55:00
10:15 AM,41.2,4.5,22,30.18,10.0,West,18.4,21.9,N/A,,Clear,260,2013-04-24 16:15:00
10:35 AM,41.9,1.6,19,30.18,10.0,West,21.9,25.3,N/A,,Clear,280,2013-04-24 16:35:00
10:55 AM,42.8,-0.2,17,30.19,10.0,West,15.0,27.6,N/A,,Clear,280,2013-04-24 16:55:00
11:15 AM,44.8,0.7,16,30.19,10.0,West,12.7,25.3,N/A,,Clear,280,2013-04-24 17:15:00
11:35 AM,45.5,-0.8,15,30.19,10.0,West,17.3,25.3,N/A,,Clear,270,2013-04-24 17:35:00
11:55 AM,46.2,0.7,15,30.19,10.0,West,17.3,27.6,N/A,,Clear,280,2013-04-24 17:55:00
12:15 PM,46.8,1.2,15,30.18,10.0,West,12.7,29.9,N/A,,Clear,260,2013-04-24 18:15:00
12:35 PM,47.3,1.8,15,30.18,10.0,West,17.3,25.3,N/A,,Clear,280,2013-04-24 18:35:00
12:55 PM,48.0,2.5,15,30.17,10.0,West,21.9,32.2,N/A,,Clear,280,2013-04-24 18:55:00
1:15 PM,48.7,2.7,15,30.18,10.0,West,19.6,39.1,N/A,,Clear,260,2013-04-24 19:15:00
1:35 PM,49.6,2.3,14,30.18,10.0,West,19.6,32.2,N/A,,Clear,270,2013-04-24 19:35:00
1:55 PM,50.5,2.7,14,30.18,10.0,WSW,23.0,29.9,N/A,,Clear,250,2013-04-24 19:55:00
2:15 PM,50.9,4.1,15,30.19,10.0,West,20.7,27.6,N/A,,Clear,270,2013-04-24 20:15:00
2:35 PM,51.1,4.3,15,30.18,10.0,West,19.6,26.5,N/A,,Clear,280,2013-04-24 20:35:00
2:55 PM,51.4,3.7,14,30.18,10.0,West,12.7,26.5,N/A,,Clear,270,2013-04-24 20:55:00
3:15 PM,52.0,3.6,14,30.18,10.0,West,18.4,26.5,N/A,,Clear,260,2013-04-24 21:15:00
3:35 PM,52.2,3.4,14,30.17,10.0,SW,13.8,29.9,N/A,,Clear,220,2013-04-24 21:35:00
3:55 PM,52.0,3.0,14,30.16,10.0,West,10.4,20.7,N/A,,Clear,270,2013-04-24 21:55:00
4:15 PM,53.1,3.4,13,30.16,10.0,West,11.5,25.3,N/A,,Clear,280,2013-04-24 22:15:00
4:35 PM,52.9,3.6,14,30.16,10.0,WSW,10.4,25.3,N/A,,Clear,240,2013-04-24 22:35:00
4:55 PM,53.1,2.8,13,30.16,10.0,West,15.0,29.9,N/A,,Clear,270,2013-04-24 22:55:00
5:15 PM,52.9,3.2,13,30.15,10.0,WSW,5.8,-,N/A,,Clear,240,2013-04-24 23:15:00
5:35 PM,52.5,1.4,12,30.15,10.0,SW,9.2,18.4,N/A,,Clear,230,2013-04-24 23:35:00
5:55 PM,53.2,0.5,12,30.16,10.0,SW,5.8,16.1,N/A,,Clear,230,2013-04-24 23:55:00
6:15 PM,52.7,1.0,12,30.17,10.0,SW,9.2,-,N/A,,Clear,220,2013-04-25 00:15:00
6:35 PM,52.5,0.1,12,30.17,10.0,West,9.2,-,N/A,,Clear,260,2013-04-25 00:35:00
6:55 PM,50.7,0.7,13,30.18,10.0,West,3.5,-,N/A,,Clear,270,2013-04-25 00:55:00
7:15 PM,48.2,4.8,17,30.18,10.0,Calm,Calm,-,N/A,,Clear,0,2013-04-25 01:15:00
7:35 PM,43.3,9.5,25,30.18,10.0,West,3.5,-,N/A,,Clear,270,2013-04-25 01:35:00
7:55 PM,42.6,14.9,33,30.20,10.0,East,16.1,-,N/A,,Clear,80,2013-04-25 01:55:00
9:15 PM,39.4,17.6,41,30.28,10.0,East,3.5,-,N/A,,Mostly Cloudy,80,2013-04-25 03:15:00
9:35 PM,39.2,18.3,43,30.29,10.0,Calm,Calm,-,N/A,,Overcast,0,2013-04-25 03:35:00
9:55 PM,38.5,18.5,45,30.29,10.0,ESE,4.6,-,N/A,,Overcast,120,2013-04-25 03:55:00
10:15 PM,38.3,18.5,45,30.30,10.0,Calm,Calm,-,N/A,,Mostly Cloudy,0,2013-04-25 04:15:00
10:35 PM,37.2,19.0,48,30.30,10.0,Calm,Calm,-,N/A,,Mostly Cloudy,0,2013-04-25 04:35:00
10:55 PM,34.9,20.5,56,30.30,10.0,Calm,Calm,-,N/A,,Scattered Clouds,0,2013-04-25 04:55:00
11:15 PM,34.2,20.7,58,30.30,10.0,West,3.5,-,N/A,,Mostly Cloudy,270,2013-04-25 05:15:00
11:35 PM,32.0,20.8,63,30.30,10.0,Calm,Calm,-,N/A,,Mostly Cloudy,0,2013-04-25 05:35:00
11:55 PM,32.7,20.3,60,30.29,10.0,Calm,Calm,-,N/A,,Mostly Cloudy,0,2013-04-25 05:55:00